createdAt,value
2022-08-27T00:00:23.383Z,21.30
2022-08-27T00:03:10.895Z,21.24
2022-08-27T00:05:55.824Z,21.14
2022-08-27T00:08:43.095Z,21.09
2022-08-27T00:11:28.313Z,21.04
2022-08-27T00:14:14.756Z,21.04
2022-08-27T00:16:59.926Z,21.07
2022-08-27T00:19:45.182Z,20.97
2022-08-27T00:22:30.665Z,21.01
2022-08-27T00:25:15.735Z,21.00
2022-08-27T00:28:01.037Z,20.94
2022-08-27T00:30:45.915Z,20.89
2022-08-27T00:33:31.123Z,20.91
2022-08-27T00:36:16.569Z,20.84
2022-08-27T00:39:01.996Z,20.83
2022-08-27T00:41:47.138Z,20.59
2022-08-27T00:44:32.726Z,20.45
2022-08-27T00:47:26.444Z,20.34
2022-08-27T00:50:16.458Z,20.45
2022-08-27T00:53:10.322Z,20.27
2022-08-27T00:56:03.144Z,20.35
2022-08-27T00:58:51.147Z,20.42
2022-08-27T01:01:36.547Z,20.30
2022-08-27T01:04:21.931Z,20.13
2022-08-27T01:07:07.287Z,20.24
2022-08-27T01:09:53.707Z,20.32
2022-08-27T01:12:39.574Z,20.34
2022-08-27T01:15:27.805Z,20.33
2022-08-27T01:18:14.244Z,20.40
2022-08-27T01:21:26.685Z,20.34
2022-08-27T01:24:39.493Z,20.37
2022-08-27T01:27:29.476Z,20.41
2022-08-27T01:30:17.948Z,20.32
2022-08-27T01:33:29.253Z,20.19
2022-08-27T01:36:14.681Z,20.18
2022-08-27T01:39:00.033Z,20.20
2022-08-27T01:41:45.419Z,20.26
2022-08-27T01:44:42.007Z,20.09
2022-08-27T01:47:31.185Z,19.99
2022-08-27T01:50:24.316Z,20.00
2022-08-27T01:53:21.865Z,20.08
2022-08-27T01:56:06.957Z,20.15
2022-08-27T01:58:52.140Z,20.22
2022-08-27T02:01:37.091Z,20.04
2022-08-27T02:04:23.784Z,20.03
2022-08-27T02:07:08.873Z,19.93
2022-08-27T02:09:53.692Z,20.00
2022-08-27T02:12:39.262Z,19.95
2022-08-27T02:15:24.678Z,19.89
2022-08-27T02:18:11.250Z,19.96
2022-08-27T02:20:56.450Z,19.93
2022-08-27T02:23:41.687Z,19.78
2022-08-27T02:26:26.608Z,19.68
2022-08-27T02:29:11.723Z,19.67
2022-08-27T02:31:56.839Z,19.63
2022-08-27T02:34:42.251Z,19.68
2022-08-27T02:37:28.172Z,19.78
2022-08-27T02:40:15.819Z,19.73
2022-08-27T02:43:01.347Z,19.75
2022-08-27T02:45:46.457Z,19.76
2022-08-27T02:48:31.759Z,19.89
2022-08-27T02:51:16.694Z,19.86
2022-08-27T02:54:03.339Z,19.92
2022-08-27T02:56:48.652Z,19.99
2022-08-27T02:59:34.087Z,20.03
2022-08-27T03:02:20.344Z,20.09
2022-08-27T03:05:07.814Z,19.92
2022-08-27T03:07:53.059Z,19.91
2022-08-27T03:10:37.829Z,19.92
2022-08-27T03:13:23.745Z,19.91
2022-08-27T03:16:08.687Z,19.62
2022-08-27T03:18:53.984Z,19.62
2022-08-27T03:21:39.190Z,19.69
2022-08-27T03:24:24.557Z,19.81
2022-08-27T03:27:09.921Z,19.70
2022-08-27T03:29:55.193Z,19.80
2022-08-27T03:32:40.159Z,19.82
2022-08-27T03:35:25.684Z,19.70
2022-08-27T03:38:11.202Z,19.79
2022-08-27T03:40:56.408Z,19.67
2022-08-27T03:43:42.021Z,19.71
2022-08-27T03:46:27.244Z,19.78
2022-08-27T03:49:13.361Z,19.84
2022-08-27T03:51:58.449Z,19.89
2022-08-27T03:54:43.803Z,19.90
2022-08-27T03:57:29.024Z,19.72
2022-08-27T04:00:15.680Z,19.61
2022-08-27T04:03:00.860Z,19.58
2022-08-27T04:05:51.437Z,19.54
2022-08-27T04:08:37.107Z,19.59
2022-08-27T04:11:22.556Z,19.63
2022-08-27T04:14:18.206Z,19.45
2022-08-27T04:17:12.297Z,19.49
2022-08-27T04:19:57.562Z,19.49
2022-08-27T04:22:42.996Z,19.49
2022-08-27T04:25:27.990Z,19.44
2022-08-27T04:28:15.693Z,19.38
2022-08-27T04:31:02.259Z,19.39
2022-08-27T04:33:51.236Z,19.45
2022-08-27T04:36:36.877Z,19.49
2022-08-27T04:39:21.641Z,19.39
2022-08-27T04:42:06.622Z,19.33
2022-08-27T04:44:52.004Z,19.36
2022-08-27T04:47:37.064Z,19.48
2022-08-27T04:50:22.114Z,19.58
2022-08-27T04:53:11.697Z,19.56
2022-08-27T04:55:57.334Z,19.50
2022-08-27T04:58:44.509Z,19.55
2022-08-27T05:01:30.645Z,19.58
2022-08-27T05:04:16.972Z,19.59
2022-08-27T05:07:02.072Z,19.65
2022-08-27T05:09:46.930Z,19.58
2022-08-27T05:12:31.788Z,19.57
2022-08-27T05:15:17.202Z,19.45
2022-08-27T05:18:02.904Z,19.45
2022-08-27T05:20:49.191Z,19.41
2022-08-27T05:23:36.713Z,19.17
2022-08-27T05:26:24.031Z,18.96
2022-08-27T05:29:09.573Z,19.01
2022-08-27T05:31:55.020Z,18.88
2022-08-27T05:34:40.012Z,18.87
2022-08-27T05:37:25.368Z,18.76
2022-08-27T05:40:10.725Z,18.71
2022-08-27T05:42:55.777Z,18.79
2022-08-27T05:45:48.645Z,18.91
2022-08-27T05:48:35.453Z,19.07
2022-08-27T05:51:25.712Z,19.11
2022-08-27T05:54:12.192Z,19.06
2022-08-27T05:56:57.016Z,19.12
2022-08-27T05:59:42.044Z,19.08
2022-08-27T06:02:27.312Z,19.12
2022-08-27T06:05:12.753Z,19.20
2022-08-27T06:07:58.040Z,19.25
2022-08-27T06:10:43.490Z,19.33
2022-08-27T06:13:30.068Z,19.44
2022-08-27T06:16:17.910Z,19.58
2022-08-27T06:19:04.095Z,19.70
2022-08-27T06:22:00.163Z,19.78
2022-08-27T06:24:54.394Z,19.87
2022-08-27T06:27:39.290Z,19.94
2022-08-27T06:30:25.522Z,19.99
2022-08-27T06:33:13.443Z,20.04
2022-08-27T06:36:03.190Z,20.05
2022-08-27T06:38:48.982Z,20.03
2022-08-27T06:41:35.065Z,20.13
2022-08-27T06:44:20.544Z,20.12
2022-08-27T06:47:05.742Z,20.03
2022-08-27T06:49:50.889Z,20.13
2022-08-27T06:52:36.496Z,20.24
2022-08-27T06:55:21.646Z,20.33
2022-08-27T06:58:06.549Z,20.46
2022-08-27T07:00:52.105Z,20.51
2022-08-27T07:03:37.065Z,20.48
2022-08-27T07:06:22.609Z,20.45
2022-08-27T07:09:08.709Z,20.53
2022-08-27T07:11:53.820Z,20.60
2022-08-27T07:14:38.648Z,20.73
2022-08-27T07:17:24.089Z,20.88
2022-08-27T07:20:09.570Z,20.87
2022-08-27T07:22:54.422Z,20.74
2022-08-27T07:25:41.783Z,20.56
2022-08-27T07:28:28.048Z,20.50
2022-08-27T07:31:15.951Z,20.34
2022-08-27T07:34:02.255Z,20.37
2022-08-27T07:36:47.426Z,20.41
2022-08-27T07:39:32.810Z,20.39
2022-08-27T07:42:17.925Z,20.35
2022-08-27T07:45:02.840Z,20.35
2022-08-27T07:47:48.331Z,20.44
2022-08-27T07:50:33.616Z,20.47
2022-08-27T07:53:19.601Z,20.50
2022-08-27T07:56:07.233Z,20.43
2022-08-27T07:58:52.155Z,20.40
2022-08-27T08:01:37.465Z,20.36
2022-08-27T08:04:23.408Z,20.30
2022-08-27T08:07:08.791Z,20.21
2022-08-27T08:09:53.849Z,20.15
2022-08-27T08:12:40.420Z,20.06
2022-08-27T08:15:25.566Z,19.96
2022-08-27T08:18:11.423Z,19.91
2022-08-27T08:21:01.773Z,19.88
2022-08-27T08:23:47.124Z,19.65
2022-08-27T08:26:32.308Z,19.58
2022-08-27T08:29:18.471Z,19.52
2022-08-27T08:32:06.108Z,19.58
2022-08-27T08:34:51.896Z,19.46
2022-08-27T08:37:37.420Z,19.53
2022-08-27T08:40:47.514Z,19.55
2022-08-27T08:43:40.360Z,19.67
2022-08-27T08:46:45.913Z,19.70
2022-08-27T08:50:09.372Z,19.73
2022-08-27T08:53:19.454Z,19.73
2022-08-27T08:56:10.440Z,19.80
2022-08-27T08:59:13.812Z,19.80
2022-08-27T09:01:59.505Z,19.82
2022-08-27T09:04:44.931Z,19.82
2022-08-27T09:07:38.814Z,19.84
2022-08-27T09:10:49.677Z,19.91
2022-08-27T09:13:42.348Z,19.92
2022-08-27T09:16:27.914Z,19.97
2022-08-27T09:19:13.467Z,19.95
2022-08-27T09:22:10.698Z,19.95
2022-08-27T09:25:07.020Z,19.98
2022-08-27T09:27:56.679Z,20.03
2022-08-27T09:30:43.051Z,20.07
2022-08-27T09:33:28.497Z,20.07
2022-08-27T09:36:34.207Z,19.88
2022-08-27T09:39:25.524Z,19.73
2022-08-27T09:42:24.299Z,19.47
2022-08-27T09:45:12.099Z,19.22
2022-08-27T09:48:31.046Z,19.19
2022-08-27T09:51:23.195Z,19.09
2022-08-27T09:54:08.448Z,19.27
2022-08-27T09:56:53.616Z,19.41
2022-08-27T09:59:51.248Z,19.38
2022-08-27T10:02:36.159Z,19.43
2022-08-27T10:05:29.786Z,19.46
2022-08-27T10:08:24.122Z,19.54
2022-08-27T10:11:20.567Z,19.63
2022-08-27T10:14:20.875Z,19.74
2022-08-27T10:17:05.770Z,19.67
2022-08-27T10:20:30.138Z,19.69
2022-08-27T10:23:15.666Z,19.78
2022-08-27T10:26:15.685Z,19.84
2022-08-27T10:29:20.804Z,19.87
2022-08-27T10:32:24.433Z,19.92
2022-08-27T10:35:21.716Z,19.92
2022-08-27T10:38:10.863Z,19.81
2022-08-27T10:41:07.261Z,19.80
2022-08-27T10:44:11.510Z,19.88
2022-08-27T10:47:21.041Z,19.87
2022-08-27T10:50:26.055Z,19.79
2022-08-27T10:53:25.555Z,19.77
2022-08-27T10:56:18.906Z,19.55
2022-08-27T10:59:18.416Z,19.31
2022-08-27T11:02:19.927Z,18.98
2022-08-27T11:05:32.583Z,19.20
2022-08-27T11:08:44.320Z,19.45
2022-08-27T11:15:03.158Z,19.66
2022-08-27T11:18:24.833Z,19.81
2022-08-27T11:21:21.071Z,19.96
2022-08-27T11:24:40.298Z,19.97
2022-08-27T11:27:29.097Z,19.98
2022-08-27T11:30:35.651Z,19.97
2022-08-27T11:33:56.505Z,20.03
2022-08-27T11:37:05.874Z,20.17
2022-08-27T11:40:16.017Z,20.21
2022-08-27T11:43:23.474Z,20.27
2022-08-27T11:46:09.553Z,20.29
2022-08-27T11:49:03.116Z,20.36
2022-08-27T11:51:58.271Z,20.47
2022-08-27T11:55:10.873Z,20.47
2022-08-27T11:58:22.342Z,20.46
2022-08-27T12:01:28.977Z,20.55
2022-08-27T12:04:36.950Z,20.50
2022-08-27T12:07:32.971Z,20.58
2022-08-27T12:10:29.668Z,20.67
2022-08-27T12:13:23.536Z,20.73
2022-08-27T12:16:14.937Z,20.79
2022-08-27T12:19:09.215Z,20.83
2022-08-27T12:22:39.633Z,20.82
2022-08-27T12:25:24.956Z,20.78
2022-08-27T12:28:10.262Z,20.79
2022-08-27T12:30:55.914Z,20.83
2022-08-27T12:33:46.583Z,20.88
2022-08-27T12:36:32.540Z,20.82
2022-08-27T12:39:26.461Z,20.89
2022-08-27T12:42:17.013Z,21.02
2022-08-27T12:45:02.007Z,21.10
2022-08-27T12:47:50.616Z,21.14
2022-08-27T12:50:36.377Z,21.21
2022-08-27T12:53:28.466Z,21.28
2022-08-27T12:56:24.156Z,21.35
2022-08-27T12:59:24.579Z,21.31
2022-08-27T13:02:12.989Z,21.18
2022-08-27T13:05:03.843Z,21.24
2022-08-27T13:07:55.338Z,21.41
2022-08-27T13:10:40.393Z,21.52
2022-08-27T13:13:25.676Z,21.60
2022-08-27T13:16:11.547Z,21.70
2022-08-27T13:18:56.644Z,21.70
2022-08-27T13:21:48.571Z,21.77
2022-08-27T13:24:44.355Z,21.89
2022-08-27T13:27:32.368Z,21.92
2022-08-27T13:30:35.131Z,21.91
2022-08-27T13:33:25.213Z,21.94
2022-08-27T13:36:13.041Z,22.04
2022-08-27T13:38:58.709Z,22.10
2022-08-27T13:41:47.503Z,22.20
2022-08-27T13:44:40.680Z,22.23
2022-08-27T13:47:29.338Z,22.25
2022-08-27T13:50:24.542Z,22.14
2022-08-27T13:53:12.092Z,22.13
2022-08-27T13:55:58.621Z,22.14
2022-08-27T13:58:43.943Z,22.09
2022-08-27T14:01:30.933Z,22.18
2022-08-27T14:04:24.914Z,22.23
2022-08-27T14:07:12.739Z,22.26
2022-08-27T14:10:08.580Z,21.95
2022-08-27T14:13:05.467Z,21.90
2022-08-27T14:15:54.321Z,22.04
2022-08-27T14:18:58.755Z,22.15
2022-08-27T14:21:44.235Z,22.19
2022-08-27T14:24:29.515Z,22.25
2022-08-27T14:27:15.524Z,22.27
2022-08-27T14:30:00.899Z,22.30
2022-08-27T14:32:46.357Z,22.32
2022-08-27T14:35:36.351Z,22.39
2022-08-27T14:38:23.588Z,22.31
2022-08-27T14:41:09.299Z,22.31
2022-08-27T14:43:54.298Z,22.28
2022-08-27T14:46:41.525Z,22.19
2022-08-27T14:49:33.274Z,22.02
2022-08-27T14:52:18.637Z,21.87
2022-08-27T14:55:06.827Z,21.84
2022-08-27T14:57:55.295Z,21.81
2022-08-27T15:00:41.589Z,21.83
2022-08-27T15:03:26.583Z,21.91
2022-08-27T15:06:11.961Z,21.90
2022-08-27T15:08:57.383Z,21.99
2022-08-27T15:11:43.386Z,21.98
2022-08-27T15:14:32.465Z,22.00
2022-08-27T15:17:33.461Z,22.04
2022-08-27T15:20:20.760Z,22.03
2022-08-27T15:23:06.193Z,21.93
2022-08-27T15:25:51.438Z,21.90
2022-08-27T15:28:36.805Z,21.88
2022-08-27T15:31:22.978Z,21.89
2022-08-27T15:34:09.129Z,21.72
2022-08-27T15:36:54.410Z,21.68
2022-08-27T15:39:39.416Z,21.74
2022-08-27T15:42:24.504Z,21.78
2022-08-27T15:45:12.105Z,21.81
2022-08-27T15:47:58.487Z,21.87
2022-08-27T15:50:43.485Z,21.90
2022-08-27T15:53:28.992Z,21.94
2022-08-27T15:56:14.026Z,22.00
2022-08-27T15:58:59.453Z,21.77
2022-08-27T16:01:45.179Z,21.64
2022-08-27T16:04:30.477Z,21.60
2022-08-27T16:07:16.636Z,21.67
2022-08-27T16:10:07.074Z,21.71
2022-08-27T16:12:52.388Z,21.58
2022-08-27T16:15:38.865Z,21.51
2022-08-27T16:18:28.251Z,21.53
2022-08-27T16:21:13.371Z,21.53
2022-08-27T16:23:58.501Z,21.51
2022-08-27T16:26:43.925Z,21.51
2022-08-27T16:29:28.700Z,21.26
2022-08-27T16:32:16.813Z,21.30
2022-08-27T16:35:04.386Z,21.35
2022-08-27T16:37:49.884Z,21.19
2022-08-27T16:40:40.273Z,21.16
2022-08-27T16:43:28.197Z,21.16
2022-08-27T16:46:13.347Z,21.09
2022-08-27T16:49:01.115Z,21.09
2022-08-27T16:51:47.187Z,21.05
2022-08-27T16:54:32.347Z,21.05
2022-08-27T16:57:17.939Z,21.10
2022-08-27T17:00:04.928Z,21.13
2022-08-27T17:02:50.288Z,21.20
2022-08-27T17:05:35.498Z,21.21
2022-08-27T17:08:26.244Z,21.20
2022-08-27T17:11:25.317Z,21.17
2022-08-27T17:14:11.029Z,21.13
2022-08-27T17:16:56.296Z,21.16
2022-08-27T17:19:41.713Z,21.20
2022-08-27T17:22:26.832Z,21.23
2022-08-27T17:25:11.851Z,21.28
2022-08-27T17:28:00.181Z,21.32
2022-08-27T17:30:45.680Z,21.33
2022-08-27T17:33:38.932Z,21.24
2022-08-27T17:36:24.795Z,21.14
2022-08-27T17:39:13.769Z,20.99
2022-08-27T17:41:59.181Z,21.01
2022-08-27T17:44:44.432Z,21.04
2022-08-27T17:47:29.530Z,20.98
2022-08-27T17:50:14.951Z,20.97
2022-08-27T17:53:00.361Z,20.98
2022-08-27T17:55:45.226Z,21.03
2022-08-27T17:58:30.823Z,21.13
2022-08-27T18:01:28.455Z,21.13
2022-08-27T18:04:13.758Z,21.14
2022-08-27T18:06:58.792Z,21.15
2022-08-27T18:09:44.305Z,21.16
2022-08-27T18:12:29.671Z,21.16
2022-08-27T18:15:19.734Z,21.23
2022-08-27T18:18:06.038Z,21.22
2022-08-27T18:20:51.561Z,21.14
2022-08-27T18:23:38.032Z,21.10
2022-08-27T18:26:27.562Z,20.99
2022-08-27T18:29:14.632Z,20.92
2022-08-27T18:32:00.059Z,20.86
2022-08-27T18:34:46.060Z,20.80
2022-08-27T18:37:30.987Z,20.72
2022-08-27T18:40:18.606Z,20.67
2022-08-27T18:43:05.234Z,20.67
2022-08-27T18:45:50.642Z,20.62
2022-08-27T18:48:36.175Z,20.54
2022-08-27T18:51:21.218Z,20.54
2022-08-27T18:54:06.607Z,20.58
2022-08-27T18:56:51.877Z,20.63
2022-08-27T18:59:36.781Z,20.69
2022-08-27T19:02:22.017Z,20.76
2022-08-27T19:05:08.497Z,20.77
2022-08-27T19:07:55.118Z,20.77
2022-08-27T19:10:40.053Z,20.70
2022-08-27T19:13:25.290Z,20.67
2022-08-27T19:16:20.811Z,20.67
2022-08-27T19:19:05.995Z,20.75
2022-08-27T19:21:51.895Z,20.75
2022-08-27T19:24:39.982Z,20.74
2022-08-27T19:27:27.558Z,20.69
2022-08-27T19:30:14.411Z,20.69
2022-08-27T19:32:59.865Z,20.61
2022-08-27T19:35:44.907Z,20.64
2022-08-27T19:38:31.438Z,20.58
2022-08-27T19:41:16.781Z,20.52
2022-08-27T19:44:02.290Z,20.48
2022-08-27T19:46:51.088Z,20.37
2022-08-27T19:49:37.034Z,20.33
2022-08-27T19:52:23.041Z,20.33
2022-08-27T19:55:14.003Z,20.34
2022-08-27T19:58:00.058Z,20.38
2022-08-27T20:00:45.882Z,20.34
2022-08-27T20:03:31.156Z,20.30
2022-08-27T20:06:16.861Z,20.21
2022-08-27T20:09:02.123Z,20.19
2022-08-27T20:11:48.088Z,20.11
2022-08-27T20:14:33.224Z,19.87
2022-08-27T20:17:23.140Z,19.88
2022-08-27T20:20:11.522Z,19.85
2022-08-27T20:22:57.520Z,19.73
2022-08-27T20:25:42.744Z,19.75
2022-08-27T20:28:44.911Z,19.75
2022-08-27T20:31:30.714Z,19.76
2022-08-27T20:34:16.035Z,19.80
2022-08-27T20:37:02.942Z,19.70
2022-08-27T20:39:47.992Z,19.71
2022-08-27T20:42:32.957Z,19.70
2022-08-27T20:45:19.203Z,19.75
2022-08-27T20:48:05.225Z,19.73
2022-08-27T20:50:50.310Z,19.59
2022-08-27T20:53:35.486Z,19.56
2022-08-27T20:56:21.086Z,19.46
2022-08-27T20:59:06.076Z,19.29
2022-08-27T21:01:51.362Z,19.16
2022-08-27T21:04:42.906Z,19.09
2022-08-27T21:07:27.830Z,18.93
2022-08-27T21:10:13.121Z,18.81
2022-08-27T21:12:59.269Z,18.69
2022-08-27T21:15:46.486Z,18.64
2022-08-27T21:18:31.600Z,18.63
2022-08-27T21:21:16.629Z,18.63
2022-08-27T21:24:02.189Z,18.53
2022-08-27T21:26:48.189Z,18.33
2022-08-27T21:29:33.466Z,18.19
2022-08-27T21:32:18.753Z,18.18
2022-08-27T21:35:03.936Z,18.04
2022-08-27T21:37:49.229Z,17.98
2022-08-27T21:40:34.685Z,17.94
2022-08-27T21:43:19.949Z,17.94
2022-08-27T21:46:05.679Z,17.97
2022-08-27T21:48:58.710Z,18.00
2022-08-27T21:51:44.363Z,18.00
2022-08-27T21:54:31.834Z,18.00
2022-08-27T21:57:16.892Z,18.09
2022-08-27T22:00:10.535Z,18.18
2022-08-27T22:02:56.666Z,18.15
2022-08-27T22:05:43.750Z,18.14
2022-08-27T22:08:29.036Z,18.10
2022-08-27T22:11:14.619Z,18.08
2022-08-27T22:13:59.778Z,17.95
2022-08-27T22:16:44.720Z,17.83
2022-08-27T22:19:30.730Z,17.87
2022-08-27T22:22:15.864Z,17.97
2022-08-27T22:25:01.196Z,18.06
2022-08-27T22:27:46.217Z,17.99
2022-08-27T22:30:31.816Z,17.84
2022-08-27T22:33:17.044Z,17.79
2022-08-27T22:36:02.354Z,17.83
2022-08-27T22:38:47.731Z,17.88
2022-08-27T22:41:33.384Z,17.92
2022-08-27T22:44:20.111Z,17.94
2022-08-27T22:47:05.445Z,17.92
2022-08-27T22:49:52.863Z,17.88
2022-08-27T22:52:39.018Z,17.91
2022-08-27T22:55:24.257Z,17.96
2022-08-27T22:58:09.395Z,18.00
2022-08-27T23:00:54.716Z,18.10
2022-08-27T23:03:40.372Z,18.13
2022-08-27T23:06:25.342Z,18.09
2022-08-27T23:09:10.645Z,17.97
2022-08-27T23:11:56.225Z,17.96
2022-08-27T23:14:41.338Z,17.95
2022-08-27T23:17:26.868Z,17.95
2022-08-27T23:20:14.919Z,17.97
2022-08-27T23:22:59.845Z,17.96
2022-08-27T23:25:45.313Z,17.99
2022-08-27T23:28:30.227Z,17.85
2022-08-27T23:31:16.054Z,17.79
2022-08-27T23:34:01.018Z,17.73
2022-08-27T23:36:47.574Z,17.75
2022-08-27T23:39:32.829Z,17.79
2022-08-27T23:42:18.164Z,17.74
2022-08-27T23:45:07.899Z,17.71
2022-08-27T23:47:53.802Z,17.71
2022-08-27T23:50:39.868Z,17.72
2022-08-27T23:53:25.364Z,17.74
2022-08-27T23:56:10.799Z,17.72
2022-08-27T23:58:55.578Z,17.68
